Time;durP1;ratioP1;P1;durP2;ratioP2;P2;SDS_P1;SDS_P2;PMS_P1;PMS_P2;Temp;Humidity;BMP_temperature;BMP_pressure;BME280_temperature;BME280_humidity;BME280_pressure;Samples;Min_cycle;Max_cycle;Signal;HPM_P1;HPM_P2
2023/02/07 00:01:39;;;;;;;27.43;17.20;;;-3.30;99.90;;;-141.84;86.05;18631.19;5048619;28;20230;-61
2023/02/07 00:04:08;;;;;;;29.30;18.63;;;-3.20;99.90;;;-141.84;85.93;18594.63;5049867;28;20242;-54
2023/02/07 00:06:37;;;;;;;25.50;17.23;;;-3.40;99.90;;;-141.84;85.93;18586.50;5049726;28;20329;-55
2023/02/07 00:09:08;;;;;;;28.10;18.57;;;-3.20;99.90;;;-141.84;85.87;18610.88;5049551;28;20231;-55
2023/02/07 00:11:39;;;;;;;27.50;18.00;;;-3.20;99.90;;;-141.84;85.20;18659.63;5050256;28;20200;-54
2023/02/07 00:14:09;;;;;;;29.70;18.30;;;-3.10;99.90;;;-141.84;85.08;18631.19;5050377;28;20207;-55
2023/02/07 00:16:38;;;;;;;24.33;16.80;;;-3.20;99.90;;;-141.84;85.35;18616.97;5049142;28;20243;-56
2023/02/07 00:19:06;;;;;;;28.00;17.97;;;-3.30;99.90;;;-141.84;85.20;18631.19;5049546;28;20475;-56
2023/02/07 00:21:34;;;;;;;23.87;16.13;;;-3.20;99.90;;;-141.84;84.09;18610.88;5049345;28;20243;-57
2023/02/07 00:24:02;;;;;;;24.23;16.47;;;-3.10;99.90;;;-141.84;83.05;18631.19;5049562;28;20232;-57
2023/02/07 00:26:32;;;;;;;24.40;16.80;;;-3.10;99.90;;;-141.84;82.35;18621.03;5049934;28;20215;-52
2023/02/07 00:29:00;;;;;;;23.77;16.70;;;-3.10;99.90;;;-141.84;82.09;18627.13;5049373;28;20275;-57
2023/02/07 00:31:31;;;;;;;28.80;17.00;;;-3.10;99.90;;;-141.84;82.91;18629.16;5049222;28;20238;-55
2023/02/07 00:34:04;;;;;;;25.00;15.83;;;-3.30;99.90;;;-141.84;83.71;18602.75;5049359;28;20643;-57
2023/02/07 00:36:35;;;;;;;23.90;16.13;;;-3.40;99.90;;;-141.84;84.05;18637.28;5049180;28;20230;-58
2023/02/07 00:39:07;;;;;;;24.87;16.00;;;-3.50;99.90;;;-141.84;84.64;18635.25;5049461;28;20222;-57
2023/02/07 00:41:36;;;;;;;25.10;16.13;;;-3.60;99.90;;;-141.84;84.87;18614.94;5050043;28;20546;-55
2023/02/07 00:44:05;;;;;;;24.17;15.60;;;-3.70;99.90;;;-141.84;85.02;18602.75;5048951;28;20257;-55
2023/02/07 00:46:34;;;;;;;24.63;16.43;;;-3.70;99.90;;;-141.84;85.14;18627.13;5048985;28;20730;-57
2023/02/07 00:49:04;;;;;;;22.90;15.93;;;-3.70;99.90;;;-141.84;85.46;18637.28;5048992;28;20231;-56
2023/02/07 00:51:33;;;;;;;22.90;16.30;;;-3.70;99.90;;;-141.84;85.33;18592.59;5049270;28;20224;-55
2023/02/07 00:54:01;;;;;;;25.03;17.33;;;-3.70;99.90;;;-141.84;84.71;18635.25;5048973;28;20617;-53
2023/02/07 00:56:31;;;;;;;24.43;16.83;;;-3.60;99.90;;;-141.84;83.08;18614.94;5048921;28;20543;-56
2023/02/07 00:59:01;;;;;;;23.20;15.80;;;-3.40;99.90;;;-141.84;83.05;18612.91;5048819;28;20231;-55
2023/02/07 01:01:29;;;;;;;27.07;16.83;;;-3.50;99.90;;;-141.84;82.16;18629.16;5049037;28;20228;-55
2023/02/07 01:03:58;;;;;;;27.63;17.03;;;-3.40;99.90;;;-141.84;81.45;18651.50;5048972;28;20244;-54
2023/02/07 01:06:28;;;;;;;23.47;17.17;;;-3.30;99.90;;;-141.84;81.10;18645.41;5049054;28;20718;-54
2023/02/07 01:08:58;;;;;;;25.47;16.60;;;-3.30;99.90;;;-141.84;81.34;18629.16;5049464;28;20229;-55
2023/02/07 01:11:27;;;;;;;23.90;16.00;;;-3.40;99.90;;;-141.84;81.28;18639.31;5049297;28;20766;-59
2023/02/07 01:13:57;;;;;;;23.10;16.03;;;-3.40;99.90;;;-141.84;81.82;18602.75;5052091;28;20245;-55
2023/02/07 01:16:30;;;;;;;26.07;16.70;;;-3.50;99.90;;;-141.84;82.83;18659.63;5052343;28;20231;-57
2023/02/07 01:19:01;;;;;;;24.40;16.03;;;-3.70;99.90;;;-141.84;83.08;18598.69;5052612;28;20223;-55
2023/02/07 01:21:30;;;;;;;23.37;15.77;;;-3.80;99.90;;;-141.84;83.47;18598.69;5052696;28;20607;-53
2023/02/07 01:23:58;;;;;;;23.43;15.90;;;-3.90;99.90;;;-141.84;83.77;18619.00;5052216;28;20238;-56
2023/02/07 01:26:28;;;;;;;22.13;15.67;;;-3.90;99.90;;;-141.84;84.21;18558.03;5052590;28;20666;-56
2023/02/07 01:28:57;;;;;;;25.97;15.10;;;-4.00;99.90;;;-141.84;84.34;18614.94;5052359;28;20228;-55
2023/02/07 01:31:26;;;;;;;25.60;15.60;;;-4.00;99.90;;;-141.84;84.58;18621.03;5052375;28;20231;-55
2023/02/07 01:33:55;;;;;;;25.90;15.60;;;-4.00;99.90;;;-141.84;84.76;18578.38;5052229;28;20218;-54
2023/02/07 01:36:25;;;;;;;24.57;16.17;;;-4.00;99.90;;;-141.84;84.96;18633.22;5052251;28;20230;-57
2023/02/07 01:38:55;;;;;;;22.37;15.93;;;-4.00;99.90;;;-141.84;85.09;18623.06;5052248;28;20200;-54
2023/02/07 01:41:26;;;;;;;25.37;17.13;;;-4.00;99.90;;;-141.84;85.19;18594.63;5052459;28;20209;-55
2023/02/07 01:44:03;;;;;;;22.13;15.53;;;-4.00;99.90;;;-141.84;84.63;18598.69;5051718;28;20250;-55
2023/02/07 01:46:34;;;;;;;21.50;15.03;;;-3.90;99.90;;;-141.84;84.79;18614.94;5051716;28;20218;-55
2023/02/07 01:49:08;;;;;;;22.20;15.33;;;-3.90;99.90;;;-141.84;84.90;18608.84;5051874;28;20227;-61
2023/02/07 01:51:40;;;;;;;23.50;15.53;;;-4.00;99.90;;;-141.84;85.13;18621.03;5051691;28;20227;-62
2023/02/07 01:54:13;;;;;;;24.17;16.40;;;-4.10;99.90;;;-141.84;85.33;18594.63;5051713;28;20233;-61
2023/02/07 01:56:46;;;;;;;24.67;16.70;;;-4.10;99.90;;;-141.84;85.56;18629.16;5052276;28;20205;-61
2023/02/07 01:59:16;;;;;;;22.93;16.10;;;-4.10;99.90;;;-141.84;85.70;18600.72;5051567;28;20315;-61
2023/02/07 02:01:46;;;;;;;23.07;15.50;;;-4.20;99.90;;;-141.84;85.45;18619.00;5051552;28;20235;-61
2023/02/07 02:04:15;;;;;;;25.27;16.47;;;-4.20;99.90;;;-141.84;85.47;18621.03;5051320;28;20225;-62
2023/02/07 02:06:44;;;;;;;25.23;16.33;;;-4.20;99.90;;;-141.84;85.70;18619.00;5051755;28;20228;-62
2023/02/07 02:09:16;;;;;;;27.93;17.83;;;-4.20;99.90;;;-141.84;85.29;18594.63;5051635;28;20574;-62
2023/02/07 02:12:19;;;;;;;23.67;15.50;;;-4.10;99.90;;;-141.84;85.16;18598.69;5051728;28;20183;-61
2023/02/07 02:15:12;;;;;;;23.53;15.33;;;-4.10;99.90;;;-141.84;85.02;18643.38;5050595;28;20187;-59
2023/02/07 02:18:08;;;;;;;24.13;15.70;;;-4.20;99.90;;;-141.84;85.29;18616.97;5052037;28;20190;-60
2023/02/07 02:21:44;;;;;;;23.30;15.33;;;-4.20;99.90;;;-141.84;84.43;18606.81;5051340;28;20509;-60
2023/02/07 02:24:50;;;;;;;25.20;15.60;;;-4.00;99.90;;;-141.84;84.22;18606.81;5050070;28;20234;-61
2023/02/07 02:27:40;;;;;;;24.00;15.23;;;-4.10;99.90;;;-141.84;84.12;18608.84;5051196;28;20233;-60
2023/02/07 02:30:39;;;;;;;22.77;15.60;;;-4.20;99.90;;;-141.84;84.48;18580.41;5051055;28;20231;-62
2023/02/07 02:33:28;;;;;;;21.70;15.17;;;-4.30;99.90;;;-141.84;84.86;18629.16;5051338;28;20219;-61
2023/02/07 02:36:15;;;;;;;21.63;15.07;;;-4.30;99.90;;;-141.84;84.91;18602.75;5051074;28;20183;-61
2023/02/07 02:38:51;;;;;;;24.87;16.00;;;-4.30;99.90;;;-141.84;84.92;18612.91;5051227;28;20183;-60
2023/02/07 02:41:28;;;;;;;24.60;15.27;;;-4.30;99.90;;;-141.84;84.79;18629.16;5051339;28;20188;-61
2023/02/07 02:44:04;;;;;;;22.67;16.40;;;-4.30;99.90;;;-141.84;84.73;18623.06;5050526;28;20226;-61
2023/02/07 02:46:37;;;;;;;24.30;16.27;;;-4.20;99.90;;;-141.84;84.28;18619.00;5050538;28;20235;-60
2023/02/07 02:49:11;;;;;;;26.63;16.83;;;-4.30;99.90;;;-141.84;84.33;18612.91;5050789;28;20226;-61
2023/02/07 02:51:39;;;;;;;23.23;15.47;;;-4.30;99.90;;;-141.84;84.41;18580.41;5050611;28;20238;-61
2023/02/07 02:54:30;;;;;;;24.53;16.50;;;-4.30;99.90;;;-141.84;84.49;18594.63;5050533;28;20233;-61
2023/02/07 02:57:38;;;;;;;25.20;15.67;;;-4.30;99.90;;;-141.84;84.19;18580.41;5050627;28;20555;-62
2023/02/07 03:00:32;;;;;;;22.30;14.83;;;-4.20;99.90;;;-141.84;84.58;18614.94;5049050;28;20231;-61
2023/02/07 03:03:25;;;;;;;23.80;15.47;;;-4.30;99.90;;;-141.84;84.85;18598.69;5050695;28;20190;-61
2023/02/07 03:06:10;;;;;;;22.80;15.33;;;-4.40;99.90;;;-141.84;84.81;18625.09;5050272;28;20211;-61
2023/02/07 03:08:48;;;;;;;22.17;14.77;;;-4.40;99.90;;;-141.84;84.82;18566.16;5050962;28;20558;-61
2023/02/07 03:11:21;;;;;;;21.63;15.23;;;-4.40;99.90;;;-141.84;84.98;18614.94;5050373;28;20207;-60
2023/02/07 03:14:00;;;;;;;24.43;15.20;;;-4.40;99.90;;;-141.84;85.14;18600.72;5050203;28;20226;-60
2023/02/07 03:16:36;;;;;;;23.23;15.10;;;-4.40;99.90;;;-141.84;85.34;18594.63;5049690;28;20571;-60
2023/02/07 03:19:11;;;;;;;22.97;15.10;;;-4.40;99.90;;;-141.84;85.31;18600.72;5050168;28;20238;-60
2023/02/07 03:21:47;;;;;;;23.33;15.03;;;-4.40;99.90;;;-141.84;85.05;18604.78;5050341;28;20261;-60
2023/02/07 03:24:20;;;;;;;23.13;15.80;;;-4.40;99.90;;;-141.84;85.15;18606.81;5050206;28;20232;-61
2023/02/07 03:26:52;;;;;;;23.57;15.40;;;-4.40;99.90;;;-141.84;84.91;18594.63;5049816;28;20615;-60
2023/02/07 03:29:24;;;;;;;23.77;15.50;;;-4.40;99.90;;;-141.84;84.65;18610.88;5050162;28;20184;-59
2023/02/07 03:31:58;;;;;;;22.77;15.67;;;-4.40;99.90;;;-141.84;84.37;18606.81;5049765;28;20340;-60
2023/02/07 03:34:34;;;;;;;21.33;15.13;;;-4.40;99.90;;;-141.84;84.31;18594.63;5049747;28;20242;-61
2023/02/07 03:37:10;;;;;;;24.23;16.07;;;-4.40;99.90;;;-141.84;84.54;18614.94;5049482;28;20229;-60
2023/02/07 03:39:39;;;;;;;23.73;16.47;;;-4.40;99.90;;;-141.84;84.41;18590.56;5049268;28;20263;-60
2023/02/07 03:42:16;;;;;;;24.70;16.37;;;-4.40;99.90;;;-141.84;84.31;18627.13;5049795;28;20696;-61
2023/02/07 03:44:47;;;;;;;22.30;15.77;;;-4.40;99.90;;;-141.84;84.06;18614.94;5049613;28;20193;-61
2023/02/07 03:47:17;;;;;;;21.07;16.07;;;-4.40;99.90;;;-141.84;83.83;18614.94;5050490;28;20185;-61
2023/02/07 03:49:46;;;;;;;23.90;16.17;;;-4.40;99.90;;;-141.84;83.75;18598.69;5049459;28;20252;-61
2023/02/07 03:52:15;;;;;;;23.10;15.83;;;-4.40;99.90;;;-141.84;83.68;18627.13;5049580;28;20229;-61
2023/02/07 03:54:43;;;;;;;25.83;15.43;;;-4.30;99.90;;;-141.84;83.73;18610.88;5049153;28;20223;-60
2023/02/07 03:57:12;;;;;;;23.17;15.00;;;-4.40;99.90;;;-141.84;83.68;18621.03;5049368;28;20223;-61
2023/02/07 03:59:40;;;;;;;23.90;15.87;;;-4.40;99.90;;;-141.84;83.61;18612.91;5049457;28;20703;-61
2023/02/07 04:02:08;;;;;;;26.17;16.10;;;-4.40;99.90;;;-141.84;83.90;18598.69;5049447;28;20230;-61
2023/02/07 04:04:37;;;;;;;25.27;16.50;;;-4.40;99.90;;;-141.84;83.60;18600.72;5049243;28;20582;-62
2023/02/07 04:07:05;;;;;;;26.60;16.77;;;-4.40;99.90;;;-141.84;82.73;18614.94;5049241;28;20232;-62
2023/02/07 04:09:35;;;;;;;26.53;16.87;;;-4.30;99.90;;;-141.84;82.41;18623.06;5049465;28;20252;-61
2023/02/07 04:12:04;;;;;;;24.87;16.77;;;-4.30;99.90;;;-141.84;81.94;18598.69;5049251;28;20222;-61
2023/02/07 04:14:32;;;;;;;23.47;15.73;;;-4.30;99.90;;;-141.84;82.16;18598.69;5049773;28;20205;-61
2023/02/07 04:17:00;;;;;;;23.07;15.73;;;-4.40;99.90;;;-141.84;82.03;18612.91;5048874;28;20256;-61
2023/02/07 04:19:28;;;;;;;24.07;15.77;;;-4.10;99.90;;;-141.84;82.47;18590.56;5049361;28;20288;-61
2023/02/07 04:21:56;;;;;;;25.63;16.47;;;-4.50;99.90;;;-141.84;82.81;18623.06;5049248;28;20601;-60
2023/02/07 04:24:25;;;;;;;25.87;15.93;;;-4.60;99.90;;;-141.84;83.40;18596.66;5049234;28;20239;-61
2023/02/07 04:26:54;;;;;;;25.10;16.37;;;-4.60;99.90;;;-141.84;83.56;18614.94;5048928;28;20264;-60
2023/02/07 04:29:22;;;;;;;22.83;15.97;;;-4.70;99.90;;;-141.84;83.64;18635.25;5049626;28;20207;-60
2023/02/07 04:31:50;;;;;;;25.57;16.30;;;-4.60;99.90;;;-141.84;83.72;18633.22;5049129;28;20319;-60
2023/02/07 04:34:19;;;;;;;24.50;16.33;;;-4.60;99.90;;;-141.84;83.27;18614.94;5049253;28;20224;-61
2023/02/07 04:36:47;;;;;;;27.80;17.10;;;-4.50;99.90;;;-141.84;82.44;18612.91;5049028;28;20226;-61
2023/02/07 04:39:15;;;;;;;25.43;17.30;;;-4.50;99.90;;;-141.84;81.46;18635.25;5049395;28;20231;-61
2023/02/07 04:41:43;;;;;;;25.17;15.80;;;-4.40;99.90;;;-141.84;81.36;18612.91;5048861;28;20203;-60
2023/02/07 04:44:13;;;;;;;26.07;16.70;;;-4.60;99.90;;;-141.84;81.75;18627.13;5049441;28;20575;-61
2023/02/07 04:46:41;;;;;;;23.80;16.13;;;-4.60;99.90;;;-141.84;81.66;18602.75;5048557;28;20613;-61
2023/02/07 04:49:09;;;;;;;28.73;17.03;;;-4.60;99.90;;;-141.84;81.12;18639.31;5052767;28;20236;-61
2023/02/07 04:51:37;;;;;;;24.83;15.63;;;-4.60;99.90;;;-141.84;80.40;18602.75;5052593;28;20613;-61
2023/02/07 04:54:05;;;;;;;28.80;16.43;;;-4.60;99.90;;;-141.84;80.57;18635.25;5052733;28;20229;-61
2023/02/07 04:56:34;;;;;;;34.53;18.70;;;-4.70;99.90;;;-141.84;80.44;18619.00;5052658;28;20200;-61
2023/02/07 04:59:03;;;;;;;31.40;17.57;;;-4.60;99.90;;;-141.84;80.90;18637.28;5052588;28;20284;-59
2023/02/07 05:01:33;;;;;;;36.40;18.13;;;-4.60;99.90;;;-141.84;81.82;18602.75;5052421;28;20229;-61
2023/02/07 05:04:01;;;;;;;27.00;17.73;;;-4.60;99.90;;;-141.84;82.30;18631.19;5052469;28;20776;-60
2023/02/07 05:06:30;;;;;;;29.23;17.83;;;-4.50;99.90;;;-141.84;82.22;18653.53;5052229;28;20229;-61
2023/02/07 05:08:58;;;;;;;30.70;18.07;;;-4.40;99.90;;;-141.84;81.68;18633.22;5052642;28;20230;-61
2023/02/07 05:11:26;;;;;;;34.47;19.23;;;-4.40;99.90;;;-141.84;81.13;18649.47;5052747;28;20206;-61
2023/02/07 05:13:55;;;;;;;32.43;18.80;;;-4.30;99.90;;;-141.84;80.76;18627.13;5052315;28;20241;-60
2023/02/07 05:16:23;;;;;;;33.73;18.87;;;-4.30;99.90;;;-141.84;81.22;18629.16;5051818;28;20242;-62
2023/02/07 05:18:52;;;;;;;28.73;17.60;;;-4.20;99.90;;;-141.84;81.51;18606.81;5053197;28;20492;-62
2023/02/07 05:21:20;;;;;;;28.43;18.27;;;-4.10;99.90;;;-141.84;81.79;18604.78;5054035;28;20231;-62
2023/02/07 05:23:48;;;;;;;47.23;20.07;;;-4.00;99.90;;;-141.84;81.29;18643.38;5052169;28;20214;-61
2023/02/07 05:26:17;;;;;;;35.13;18.77;;;-4.00;99.90;;;-141.84;80.69;18629.16;5052147;28;20713;-60
2023/02/07 05:28:45;;;;;;;34.20;18.90;;;-3.90;99.90;;;-141.84;79.77;18631.19;5052042;28;20465;-62
2023/02/07 05:31:13;;;;;;;32.53;18.97;;;-3.80;99.90;;;-141.84;79.40;18653.53;5051920;28;20226;-63
2023/02/07 05:33:41;;;;;;;31.17;18.13;;;-3.70;99.90;;;-141.84;80.23;18631.19;5051843;28;20242;-62
2023/02/07 05:36:10;;;;;;;32.03;20.37;;;-3.70;99.90;;;-141.84;81.00;18621.03;5051735;28;20568;-60
2023/02/07 05:38:39;;;;;;;33.73;18.97;;;-3.70;99.90;;;-141.84;81.41;18600.72;5052509;28;20569;-60
2023/02/07 05:41:07;;;;;;;32.87;18.93;;;-3.60;99.90;;;-141.84;81.82;18604.78;5052192;28;20232;-61
2023/02/07 05:43:35;;;;;;;33.03;20.07;;;-3.60;99.90;;;-141.84;82.01;18653.53;5051776;28;20636;-61
2023/02/07 05:46:03;;;;;;;35.03;21.40;;;-3.70;99.90;;;-141.84;81.29;18647.44;5051403;28;20606;-61
2023/02/07 05:48:31;;;;;;;43.60;20.87;;;-3.60;99.90;;;-141.84;81.03;18623.06;5051576;28;20610;-63
2023/02/07 05:50:59;;;;;;;36.83;19.43;;;-3.60;99.90;;;-141.84;80.24;18659.63;5051853;28;20205;-61
2023/02/07 05:53:29;;;;;;;33.80;20.83;;;-3.60;99.90;;;-141.84;80.42;18631.19;5051449;28;20199;-60
2023/02/07 05:55:57;;;;;;;32.57;19.50;;;-3.50;99.90;;;-141.84;80.16;18651.50;5051125;28;20746;-61
2023/02/07 05:58:25;;;;;;;33.23;20.27;;;-3.40;99.90;;;-141.84;79.95;18657.59;5051176;28;20268;-61
2023/02/07 06:00:55;;;;;;;33.60;19.80;;;-3.30;99.90;;;-141.84;79.22;18671.81;5051104;28;20255;-61
2023/02/07 06:03:23;;;;;;;31.13;19.37;;;-3.20;99.90;;;-141.84;79.52;18659.63;5051398;28;20262;-61
2023/02/07 06:05:51;;;;;;;37.60;20.47;;;-3.20;99.90;;;-141.84;78.96;18633.22;5051629;28;20200;-61
2023/02/07 06:08:20;;;;;;;33.23;19.60;;;-3.30;99.90;;;-141.84;78.87;18637.28;5051551;28;20227;-62
2023/02/07 06:10:49;;;;;;;31.70;19.47;;;-3.30;99.90;;;-141.84;79.05;18651.50;5051259;28;20248;-62
2023/02/07 06:13:17;;;;;;;34.07;19.40;;;-3.30;99.90;;;-141.84;79.24;18651.50;5051086;28;20239;-61
2023/02/07 06:15:45;;;;;;;32.33;18.93;;;-3.30;99.90;;;-141.84;79.25;18633.22;5050733;28;20714;-62
2023/02/07 06:18:14;;;;;;;34.63;18.83;;;-3.40;99.90;;;-141.84;78.75;18651.50;5051193;28;20590;-62
2023/02/07 06:20:42;;;;;;;32.97;19.40;;;-3.30;99.90;;;-141.84;77.68;18700.25;5050848;28;20207;-62
2023/02/07 06:23:10;;;;;;;39.70;19.73;;;-3.30;99.90;;;-141.84;77.75;18655.56;5051547;28;20204;-60
2023/02/07 06:25:38;;;;;;;33.50;18.80;;;-3.40;99.90;;;-141.84;77.13;18661.66;5050726;28;20243;-61
2023/02/07 06:28:09;;;;;;;34.23;19.23;;;-3.50;99.90;;;-141.84;77.72;18661.66;5050790;28;20241;-63
2023/02/07 06:30:37;;;;;;;30.33;19.00;;;-3.50;99.90;;;-141.84;78.43;18647.44;5050398;28;20223;-62
2023/02/07 06:33:05;;;;;;;45.63;19.80;;;-3.50;99.90;;;-141.84;79.05;18633.22;5051064;28;20227;-62
2023/02/07 06:35:33;;;;;;;32.37;19.13;;;-3.50;99.90;;;-141.84;79.03;18655.56;5051370;28;20211;-62
2023/02/07 06:38:01;;;;;;;30.53;18.63;;;-3.50;99.90;;;-141.84;79.50;18663.69;5050643;28;20300;-61
2023/02/07 06:40:29;;;;;;;31.67;19.30;;;-3.40;99.90;;;-141.84;79.41;18667.75;5050646;28;20229;-62
2023/02/07 06:42:57;;;;;;;35.20;18.90;;;-3.30;99.90;;;-141.84;79.38;18645.41;5050406;28;20742;-61
2023/02/07 06:45:27;;;;;;;33.67;19.23;;;-3.30;99.90;;;-141.84;79.93;18659.63;5050919;28;20227;-61
2023/02/07 06:47:55;;;;;;;38.90;19.87;;;-3.30;99.90;;;-141.84;79.10;18647.44;5050714;28;20234;-61
2023/02/07 06:50:23;;;;;;;30.57;19.33;;;-3.30;99.90;;;-141.84;79.15;18667.75;5051292;28;20204;-61
2023/02/07 06:52:51;;;;;;;32.60;20.03;;;-3.30;99.90;;;-141.84;79.01;18649.47;5050380;28;20729;-61
2023/02/07 06:55:19;;;;;;;44.60;19.37;;;-3.30;99.90;;;-141.84;78.99;18649.47;5034932;28;20252;-62
2023/02/07 06:57:48;;;;;;;34.50;19.83;;;-3.40;99.90;;;-141.84;78.90;18651.50;5030509;28;20229;-62
2023/02/07 07:00:17;;;;;;;35.30;20.13;;;-3.30;99.90;;;-141.84;78.96;18621.03;5030585;28;20225;-61
2023/02/07 07:02:47;;;;;;;34.87;20.20;;;-3.40;99.90;;;-141.84;78.96;18661.66;5030756;28;20469;-62
2023/02/07 07:05:16;;;;;;;34.40;20.33;;;-3.50;99.90;;;-141.84;79.21;18653.53;5031116;28;20225;-61
2023/02/07 07:07:44;;;;;;;35.63;19.87;;;-3.40;99.90;;;-141.84;79.71;18651.50;5030248;28;20707;-61
2023/02/07 07:10:13;;;;;;;32.90;19.23;;;-3.30;99.90;;;-141.84;79.86;18653.53;5029759;28;20926;-61
2023/02/07 07:12:41;;;;;;;38.97;22.23;;;-3.40;99.90;;;-141.84;79.33;18665.72;5030370;28;20228;-62
2023/02/07 07:15:10;;;;;;;38.60;21.17;;;-3.30;99.90;;;-141.84;79.36;18675.88;5028324;28;20228;-63
2023/02/07 07:17:38;;;;;;;35.77;20.83;;;-3.20;99.90;;;-141.84;79.23;18665.72;5030553;28;20181;-61
2023/02/07 07:20:11;;;;;;;39.90;19.90;;;-3.00;99.90;;;-141.84;78.66;18647.44;5029866;28;20232;-61
2023/02/07 07:22:39;;;;;;;37.60;21.60;;;-2.90;99.90;;;-141.84;78.04;18661.66;5041485;28;20605;-62
2023/02/07 07:25:07;;;;;;;37.30;21.00;;;-2.80;99.90;;;-141.84;77.74;18651.50;5035919;28;20229;-61
2023/02/07 07:27:36;;;;;;;33.47;20.60;;;-2.80;99.90;;;-141.84;77.53;18653.53;5029478;28;20329;-61
2023/02/07 07:30:05;;;;;;;34.03;19.20;;;-2.80;99.90;;;-141.84;76.87;18657.59;5029568;28;20262;-61
2023/02/07 07:32:33;;;;;;;35.47;21.20;;;-2.90;99.90;;;-141.84;76.68;18684.00;5030091;28;20266;-61
2023/02/07 07:35:02;;;;;;;33.90;21.23;;;-2.80;99.90;;;-141.84;76.86;18679.94;5029278;28;20522;-60
2023/02/07 07:37:32;;;;;;;40.50;22.03;;;-2.90;99.90;;;-141.84;77.06;18675.88;5029509;28;20237;-56
2023/02/07 07:40:00;;;;;;;38.63;21.23;;;-2.80;99.90;;;-141.84;77.44;18675.88;5029707;28;20389;-55
2023/02/07 07:42:28;;;;;;;37.13;20.23;;;-2.90;99.90;;;-141.84;76.99;18696.19;5029472;28;20248;-54
2023/02/07 07:44:56;;;;;;;35.20;19.97;;;-2.80;99.90;;;-141.84;76.86;18696.19;5029490;28;20212;-57
2023/02/07 07:47:26;;;;;;;35.80;19.13;;;-2.80;99.90;;;-141.84;76.08;18694.16;5029785;28;20225;-55
2023/02/07 07:49:54;;;;;;;34.93;20.27;;;-2.80;99.90;;;-141.84;75.79;18698.22;5029117;28;20625;-57
2023/02/07 07:52:23;;;;;;;37.07;21.00;;;-2.70;99.90;;;-141.84;76.28;18698.22;5029350;28;20229;-57
2023/02/07 07:54:52;;;;;;;34.60;20.37;;;-2.70;99.90;;;-141.84;75.80;18659.63;5029321;28;20228;-55
2023/02/07 07:57:21;;;;;;;34.43;20.20;;;-2.80;99.90;;;-141.84;75.75;18686.03;5029456;28;20279;-55
2023/02/07 07:59:49;;;;;;;35.03;19.83;;;-2.70;99.90;;;-141.84;75.40;18659.63;5029107;28;20531;-57
2023/02/07 08:02:17;;;;;;;31.77;19.80;;;-2.70;99.90;;;-141.84;74.98;18692.13;5030186;28;20260;-59
2023/02/07 08:04:45;;;;;;;32.00;18.23;;;-2.70;99.90;;;-141.84;74.80;18696.19;5029204;28;20712;-56
2023/02/07 08:07:13;;;;;;;34.07;18.10;;;-2.60;99.90;;;-141.84;75.35;18686.03;5029221;28;20286;-55
2023/02/07 08:09:41;;;;;;;30.50;18.23;;;-2.60;99.90;;;-141.84;74.69;18708.41;5029164;28;20232;-56
2023/02/07 08:12:11;;;;;;;35.37;19.10;;;-2.70;99.90;;;-141.84;74.70;18690.09;5029314;28;20230;-62
2023/02/07 08:14:39;;;;;;;35.43;19.60;;;-2.60;99.90;;;-141.84;74.84;18708.41;5029623;28;20266;-60
2023/02/07 08:17:07;;;;;;;35.27;20.00;;;-2.40;99.90;;;-141.84;74.83;18708.41;4990274;28;20223;-61
2023/02/07 08:19:37;;;;;;;38.33;21.33;;;-2.30;99.90;;;-141.84;75.37;18708.41;4989537;28;20235;-62
2023/02/07 08:22:05;;;;;;;34.40;20.07;;;-2.30;99.90;;;-141.84;75.07;18718.56;4990347;28;20242;-63
2023/02/07 08:24:34;;;;;;;36.37;20.77;;;-2.20;99.90;;;-141.84;74.89;18714.50;4993717;28;20292;-61
2023/02/07 08:27:03;;;;;;;33.73;19.20;;;-2.20;99.90;;;-141.84;74.90;18714.50;4993695;28;20253;-65
2023/02/07 08:29:33;;;;;;;33.93;19.53;;;-2.10;99.90;;;-141.84;74.44;18716.53;4993864;28;20690;-62
2023/02/07 08:32:02;;;;;;;36.43;20.03;;;-2.00;99.90;;;-141.84;74.20;18759.19;4993720;28;20233;-63
2023/02/07 08:34:36;;;;;;;35.70;20.07;;;-2.10;99.90;;;-141.84;73.27;18759.19;4993665;28;20230;-63
2023/02/07 08:37:05;;;;;;;35.47;20.23;;;-2.10;99.90;;;-141.84;73.53;18728.72;4993748;28;20231;-61
2023/02/07 08:39:34;;;;;;;37.20;20.07;;;-2.00;99.90;;;-141.84;73.75;18736.84;4993409;28;20314;-63
2023/02/07 08:42:04;;;;;;;39.73;20.13;;;-2.00;99.90;;;-141.84;73.87;18738.88;4993671;28;20234;-61
2023/02/07 08:44:33;;;;;;;36.57;20.83;;;-1.90;99.90;;;-141.84;73.13;18722.63;4993876;28;20199;-62
2023/02/07 08:47:01;;;;;;;36.37;20.93;;;-2.10;99.90;;;-141.84;72.77;18757.16;4993444;28;20237;-63
2023/02/07 08:49:30;;;;;;;38.77;20.97;;;-2.00;99.90;;;-141.84;72.74;18704.31;4993403;28;20393;-62
2023/02/07 08:51:58;;;;;;;37.20;21.10;;;-2.00;99.90;;;-141.84;73.29;18751.06;4993541;28;20237;-64
2023/02/07 08:54:26;;;;;;;42.43;21.60;;;-2.00;99.90;;;-141.84;73.15;18749.03;4997161;28;20240;-64
2023/02/07 08:56:54;;;;;;;36.93;21.20;;;-2.00;99.90;;;-141.84;71.97;18759.19;5004593;28;20217;-61
2023/02/07 08:59:22;;;;;;;40.07;21.57;;;-1.90;99.90;;;-141.84;72.23;18769.34;5013376;28;20199;-61
2023/02/07 09:01:52;;;;;;;36.10;20.60;;;-2.00;99.90;;;-141.84;72.53;18765.28;5012536;28;20245;-61
2023/02/07 09:04:20;;;;;;;39.33;20.93;;;-2.00;99.90;;;-141.84;73.31;18738.88;5012833;28;20309;-63
2023/02/07 09:06:48;;;;;;;37.53;22.03;;;-2.00;99.90;;;-141.84;73.68;18728.72;5012832;28;20226;-63
2023/02/07 09:09:17;;;;;;;40.93;22.80;;;-1.90;99.90;;;-141.84;73.27;18761.22;5012549;28;20286;-62
2023/02/07 09:11:45;;;;;;;42.07;22.07;;;-1.80;99.90;;;-141.84;73.38;18759.19;5012741;28;20210;-63
2023/02/07 09:14:13;;;;;;;38.87;22.07;;;-1.70;99.90;;;-141.84;73.48;18757.16;5012958;28;20203;-62
2023/02/07 09:16:41;;;;;;;36.17;20.93;;;-1.60;99.90;;;-141.84;73.60;18734.81;5043950;28;20612;-61
2023/02/07 09:19:11;;;;;;;37.93;21.80;;;-1.60;99.90;;;-141.84;73.57;18777.47;5050578;28;20311;-62
2023/02/07 09:21:39;;;;;;;36.00;21.17;;;-1.60;99.90;;;-141.84;71.22;18767.31;5050720;28;20232;-61
2023/02/07 09:24:07;;;;;;;36.57;22.33;;;-1.50;99.90;;;-141.84;71.46;18785.59;5050995;28;20255;-61
2023/02/07 09:26:37;;;;;;;39.17;22.57;;;-1.40;99.90;;;-141.84;71.85;18779.50;5051260;28;20555;-62
2023/02/07 09:29:06;;;;;;;39.70;22.17;;;-1.40;99.90;;;-141.84;72.09;18777.47;5050805;28;20230;-65
2023/02/07 09:31:35;;;;;;;41.67;24.17;;;-1.30;99.90;;;-141.84;71.65;18771.38;5050527;28;20229;-63
2023/02/07 09:34:04;;;;;;;38.00;22.53;;;-1.30;99.90;;;-141.84;70.52;18777.47;5050340;28;20728;-61
2023/02/07 09:36:34;;;;;;;36.90;22.17;;;-1.20;99.90;;;-141.84;69.97;18797.78;5050428;28;20240;-62
2023/02/07 09:39:04;;;;;;;42.23;22.20;;;-1.20;99.90;;;-141.84;70.61;18797.78;5050318;28;20312;-63
2023/02/07 09:41:42;;;;;;;43.27;23.47;;;-1.20;99.90;;;-141.84;70.21;18797.78;5051137;28;20202;-61
2023/02/07 09:44:24;;;;;;;40.93;22.70;;;-1.10;99.90;;;-141.84;70.69;18781.53;5050682;28;20213;-61
2023/02/07 09:47:02;;;;;;;40.63;22.47;;;-1.00;99.90;;;-141.84;70.61;18785.59;5050247;28;20717;-61
2023/02/07 09:49:38;;;;;;;42.77;23.10;;;-1.00;99.90;;;-141.84;70.77;18789.66;5050100;28;20236;-60
2023/02/07 09:52:16;;;;;;;41.13;23.00;;;-1.20;99.90;;;-141.84;70.77;18816.06;5050277;28;20236;-60
2023/02/07 09:54:49;;;;;;;41.37;22.87;;;-1.10;99.90;;;-141.84;70.69;18793.72;5050381;28;20242;-61
2023/02/07 09:57:25;;;;;;;39.80;22.33;;;-1.00;99.90;;;-141.84;70.33;18836.41;5050387;28;20221;-60
2023/02/07 10:00:01;;;;;;;41.77;23.57;;;-0.90;99.90;;;-141.84;70.67;18805.91;5050016;28;20194;-61
2023/02/07 10:02:38;;;;;;;46.03;24.30;;;-0.90;99.90;;;-141.84;69.15;18834.38;5050351;28;20191;-62
2023/02/07 10:05:17;;;;;;;42.17;23.23;;;-0.80;99.90;;;-141.84;69.04;18852.66;5050198;28;20231;-65
2023/02/07 10:07:48;;;;;;;43.20;24.90;;;-0.80;99.90;;;-141.84;69.22;18803.88;5050034;28;20275;-62
2023/02/07 10:10:22;;;;;;;39.60;22.90;;;-0.80;99.90;;;-141.84;69.37;18826.25;5049986;28;20231;-63